sensor_id;sensor_type;location;lat;lon;timestamp;P1;durP1;ratioP1;P2;durP2;ratioP2
18693;SDS011;9477;51.414;10.362;2022-12-29T00:01:20;2.57;;;1.60;;
18693;SDS011;9477;51.414;10.362;2022-12-29T00:03:25;2.03;;;1.70;;
18693;SDS011;9477;51.414;10.362;2022-12-29T00:05:28;2.30;;;1.77;;
18693;SDS011;9477;51.414;10.362;2022-12-29T00:07:31;2.73;;;1.57;;
18693;SDS011;9477;51.414;10.362;2022-12-29T00:09:34;2.33;;;1.70;;
18693;SDS011;9477;51.414;10.362;2022-12-29T00:11:37;3.27;;;1.70;;
18693;SDS011;9477;51.414;10.362;2022-12-29T00:13:40;2.27;;;1.57;;
18693;SDS011;9477;51.414;10.362;2022-12-29T00:16:01;2.77;;;1.80;;
18693;SDS011;9477;51.414;10.362;2022-12-29T00:18:03;2.83;;;1.60;;
18693;SDS011;9477;51.414;10.362;2022-12-29T00:20:09;3.00;;;1.80;;
18693;SDS011;9477;51.414;10.362;2022-12-29T00:22:29;2.60;;;1.53;;
18693;SDS011;9477;51.414;10.362;2022-12-29T00:24:50;1.93;;;1.63;;
18693;SDS011;9477;51.414;10.362;2022-12-29T00:27:11;3.53;;;1.60;;
18693;SDS011;9477;51.414;10.362;2022-12-29T00:29:33;3.03;;;1.70;;
18693;SDS011;9477;51.414;10.362;2022-12-29T00:31:54;2.20;;;1.70;;
18693;SDS011;9477;51.414;10.362;2022-12-29T00:34:14;2.33;;;1.60;;
18693;SDS011;9477;51.414;10.362;2022-12-29T00:36:37;3.93;;;1.80;;
18693;SDS011;9477;51.414;10.362;2022-12-29T00:38:43;3.90;;;2.20;;
18693;SDS011;9477;51.414;10.362;2022-12-29T00:41:06;2.37;;;1.63;;
18693;SDS011;9477;51.414;10.362;2022-12-29T00:43:35;3.93;;;1.80;;
18693;SDS011;9477;51.414;10.362;2022-12-29T00:45:56;2.70;;;2.20;;
18693;SDS011;9477;51.414;10.362;2022-12-29T00:47:59;3.63;;;2.47;;
18693;SDS011;9477;51.414;10.362;2022-12-29T00:50:02;4.17;;;2.17;;
18693;SDS011;9477;51.414;10.362;2022-12-29T00:52:06;3.67;;;2.20;;
18693;SDS011;9477;51.414;10.362;2022-12-29T00:54:10;4.53;;;1.87;;
18693;SDS011;9477;51.414;10.362;2022-12-29T00:56:14;5.30;;;2.13;;
18693;SDS011;9477;51.414;10.362;2022-12-29T00:58:18;3.87;;;1.80;;
18693;SDS011;9477;51.414;10.362;2022-12-29T01:00:21;3.23;;;1.90;;
18693;SDS011;9477;51.414;10.362;2022-12-29T01:02:24;2.13;;;1.80;;
18693;SDS011;9477;51.414;10.362;2022-12-29T01:04:27;2.27;;;1.60;;
18693;SDS011;9477;51.414;10.362;2022-12-29T01:06:30;4.10;;;2.00;;
18693;SDS011;9477;51.414;10.362;2022-12-29T01:08:35;2.20;;;1.73;;
18693;SDS011;9477;51.414;10.362;2022-12-29T01:10:38;2.87;;;1.90;;
18693;SDS011;9477;51.414;10.362;2022-12-29T01:12:40;2.20;;;1.97;;
18693;SDS011;9477;51.414;10.362;2022-12-29T01:14:43;2.37;;;2.03;;
18693;SDS011;9477;51.414;10.362;2022-12-29T01:16:46;3.77;;;2.10;;
18693;SDS011;9477;51.414;10.362;2022-12-29T01:18:49;3.23;;;1.90;;
18693;SDS011;9477;51.414;10.362;2022-12-29T01:20:57;3.27;;;2.20;;
18693;SDS011;9477;51.414;10.362;2022-12-29T01:23:02;3.97;;;2.30;;
18693;SDS011;9477;51.414;10.362;2022-12-29T01:25:06;4.57;;;1.90;;
18693;SDS011;9477;51.414;10.362;2022-12-29T01:27:10;2.10;;;1.90;;
18693;SDS011;9477;51.414;10.362;2022-12-29T01:29:12;4.50;;;2.00;;
18693;SDS011;9477;51.414;10.362;2022-12-29T01:31:15;3.00;;;1.90;;
18693;SDS011;9477;51.414;10.362;2022-12-29T01:33:19;3.90;;;2.00;;
18693;SDS011;9477;51.414;10.362;2022-12-29T01:35:21;3.33;;;1.60;;
18693;SDS011;9477;51.414;10.362;2022-12-29T01:37:24;2.60;;;1.97;;
18693;SDS011;9477;51.414;10.362;2022-12-29T01:39:27;5.00;;;2.00;;
18693;SDS011;9477;51.414;10.362;2022-12-29T01:41:32;5.10;;;1.90;;
18693;SDS011;9477;51.414;10.362;2022-12-29T01:43:41;2.37;;;1.80;;
18693;SDS011;9477;51.414;10.362;2022-12-29T01:45:47;2.93;;;2.07;;
18693;SDS011;9477;51.414;10.362;2022-12-29T01:47:53;3.60;;;2.20;;
18693;SDS011;9477;51.414;10.362;2022-12-29T01:50:01;6.83;;;2.53;;
18693;SDS011;9477;51.414;10.362;2022-12-29T01:52:07;3.27;;;1.87;;
18693;SDS011;9477;51.414;10.362;2022-12-29T01:54:11;2.33;;;1.70;;
18693;SDS011;9477;51.414;10.362;2022-12-29T01:56:18;3.37;;;2.10;;
18693;SDS011;9477;51.414;10.362;2022-12-29T01:58:24;4.40;;;1.80;;
18693;SDS011;9477;51.414;10.362;2022-12-29T02:00:32;3.43;;;2.00;;
18693;SDS011;9477;51.414;10.362;2022-12-29T02:02:35;2.97;;;2.07;;
18693;SDS011;9477;51.414;10.362;2022-12-29T02:04:39;3.23;;;1.73;;
18693;SDS011;9477;51.414;10.362;2022-12-29T02:06:46;2.03;;;1.60;;
18693;SDS011;9477;51.414;10.362;2022-12-29T02:08:53;2.17;;;1.67;;
18693;SDS011;9477;51.414;10.362;2022-12-29T02:10:59;3.83;;;1.97;;
18693;SDS011;9477;51.414;10.362;2022-12-29T02:13:03;3.47;;;1.97;;
18693;SDS011;9477;51.414;10.362;2022-12-29T02:15:08;2.97;;;1.80;;
18693;SDS011;9477;51.414;10.362;2022-12-29T02:17:13;2.73;;;1.80;;
18693;SDS011;9477;51.414;10.362;2022-12-29T02:22:11;4.13;;;2.10;;
18693;SDS011;9477;51.414;10.362;2022-12-29T02:27:04;3.23;;;1.90;;
18693;SDS011;9477;51.414;10.362;2022-12-29T02:32:00;2.70;;;1.60;;
18693;SDS011;9477;51.414;10.362;2022-12-29T02:34:10;5.50;;;2.87;;
18693;SDS011;9477;51.414;10.362;2022-12-29T02:36:24;5.77;;;2.50;;
18693;SDS011;9477;51.414;10.362;2022-12-29T02:38:40;3.27;;;1.97;;
18693;SDS011;9477;51.414;10.362;2022-12-29T02:40:53;3.13;;;2.00;;
18693;SDS011;9477;51.414;10.362;2022-12-29T02:43:01;4.57;;;1.80;;
18693;SDS011;9477;51.414;10.362;2022-12-29T02:45:11;3.60;;;2.00;;
18693;SDS011;9477;51.414;10.362;2022-12-29T02:47:23;2.83;;;1.80;;
18693;SDS011;9477;51.414;10.362;2022-12-29T02:49:36;4.90;;;1.90;;
18693;SDS011;9477;51.414;10.362;2022-12-29T02:51:44;2.40;;;1.77;;
18693;SDS011;9477;51.414;10.362;2022-12-29T02:53:52;3.27;;;1.80;;
18693;SDS011;9477;51.414;10.362;2022-12-29T02:56:12;2.60;;;1.77;;
18693;SDS011;9477;51.414;10.362;2022-12-29T02:58:16;2.93;;;1.93;;
18693;SDS011;9477;51.414;10.362;2022-12-29T03:00:22;2.37;;;1.80;;
18693;SDS011;9477;51.414;10.362;2022-12-29T03:02:32;3.03;;;2.00;;
18693;SDS011;9477;51.414;10.362;2022-12-29T03:04:53;3.27;;;1.70;;
18693;SDS011;9477;51.414;10.362;2022-12-29T03:07:10;3.37;;;1.60;;
18693;SDS011;9477;51.414;10.362;2022-12-29T03:09:21;3.67;;;1.70;;
18693;SDS011;9477;51.414;10.362;2022-12-29T03:11:36;3.10;;;1.77;;
18693;SDS011;9477;51.414;10.362;2022-12-29T03:14:06;2.13;;;1.87;;
18693;SDS011;9477;51.414;10.362;2022-12-29T03:16:34;3.40;;;1.40;;
18693;SDS011;9477;51.414;10.362;2022-12-29T03:18:46;2.03;;;1.80;;
18693;SDS011;9477;51.414;10.362;2022-12-29T03:20:54;2.03;;;1.60;;
18693;SDS011;9477;51.414;10.362;2022-12-29T03:23:01;2.87;;;1.63;;
18693;SDS011;9477;51.414;10.362;2022-12-29T03:25:06;1.93;;;1.53;;
18693;SDS011;9477;51.414;10.362;2022-12-29T03:27:13;3.37;;;1.60;;
18693;SDS011;9477;51.414;10.362;2022-12-29T03:29:19;2.83;;;1.60;;
18693;SDS011;9477;51.414;10.362;2022-12-29T03:31:23;2.93;;;1.70;;
18693;SDS011;9477;51.414;10.362;2022-12-29T03:33:27;2.83;;;1.30;;
18693;SDS011;9477;51.414;10.362;2022-12-29T03:35:35;2.67;;;1.70;;
18693;SDS011;9477;51.414;10.362;2022-12-29T03:37:42;2.80;;;1.67;;
18693;SDS011;9477;51.414;10.362;2022-12-29T03:39:51;1.93;;;1.50;;
18693;SDS011;9477;51.414;10.362;2022-12-29T03:41:54;2.73;;;1.70;;
18693;SDS011;9477;51.414;10.362;2022-12-29T03:44:01;2.47;;;1.50;;
18693;SDS011;9477;51.414;10.362;2022-12-29T03:46:04;3.23;;;2.00;;
18693;SDS011;9477;51.414;10.362;2022-12-29T03:48:07;2.43;;;1.50;;
18693;SDS011;9477;51.414;10.362;2022-12-29T03:50:11;2.70;;;1.40;;
18693;SDS011;9477;51.414;10.362;2022-12-29T03:52:16;1.70;;;1.60;;
18693;SDS011;9477;51.414;10.362;2022-12-29T03:54:19;2.93;;;1.37;;
18693;SDS011;9477;51.414;10.362;2022-12-29T03:56:22;2.80;;;1.60;;
18693;SDS011;9477;51.414;10.362;2022-12-29T03:58:25;3.03;;;1.50;;
18693;SDS011;9477;51.414;10.362;2022-12-29T04:00:28;1.73;;;1.50;;
18693;SDS011;9477;51.414;10.362;2022-12-29T04:02:31;2.90;;;1.50;;
18693;SDS011;9477;51.414;10.362;2022-12-29T04:04:34;2.40;;;1.30;;
18693;SDS011;9477;51.414;10.362;2022-12-29T04:06:37;3.03;;;1.33;;
18693;SDS011;9477;51.414;10.362;2022-12-29T04:08:42;1.77;;;1.37;;
18693;SDS011;9477;51.414;10.362;2022-12-29T04:10:45;3.70;;;1.47;;
18693;SDS011;9477;51.414;10.362;2022-12-29T04:12:47;2.20;;;1.43;;
18693;SDS011;9477;51.414;10.362;2022-12-29T04:14:50;2.83;;;1.33;;
18693;SDS011;9477;51.414;10.362;2022-12-29T04:16:53;2.80;;;1.30;;
18693;SDS011;9477;51.414;10.362;2022-12-29T04:18:56;2.00;;;1.30;;
18693;SDS011;9477;51.414;10.362;2022-12-29T04:20:59;2.90;;;1.40;;
18693;SDS011;9477;51.414;10.362;2022-12-29T04:23:01;1.23;;;1.10;;
18693;SDS011;9477;51.414;10.362;2022-12-29T04:25:06;2.87;;;1.50;;
18693;SDS011;9477;51.414;10.362;2022-12-29T04:27:09;2.00;;;1.60;;
18693;SDS011;9477;51.414;10.362;2022-12-29T04:29:12;1.93;;;1.20;;
18693;SDS011;9477;51.414;10.362;2022-12-29T04:31:17;2.70;;;1.40;;
18693;SDS011;9477;51.414;10.362;2022-12-29T04:33:20;1.90;;;1.30;;
18693;SDS011;9477;51.414;10.362;2022-12-29T04:35:23;1.67;;;1.20;;
18693;SDS011;9477;51.414;10.362;2022-12-29T04:37:26;2.33;;;1.30;;
18693;SDS011;9477;51.414;10.362;2022-12-29T04:39:29;1.63;;;1.20;;
18693;SDS011;9477;51.414;10.362;2022-12-29T04:41:33;2.83;;;1.60;;
18693;SDS011;9477;51.414;10.362;2022-12-29T04:43:36;1.50;;;1.13;;
18693;SDS011;9477;51.414;10.362;2022-12-29T04:45:39;3.10;;;1.47;;
18693;SDS011;9477;51.414;10.362;2022-12-29T04:47:45;2.03;;;1.10;;
18693;SDS011;9477;51.414;10.362;2022-12-29T04:49:48;3.80;;;1.23;;
18693;SDS011;9477;51.414;10.362;2022-12-29T04:51:52;2.43;;;1.30;;
18693;SDS011;9477;51.414;10.362;2022-12-29T04:53:54;2.70;;;1.43;;
18693;SDS011;9477;51.414;10.362;2022-12-29T04:55:57;1.87;;;1.20;;
18693;SDS011;9477;51.414;10.362;2022-12-29T04:58:01;1.57;;;1.20;;
18693;SDS011;9477;51.414;10.362;2022-12-29T05:00:05;3.27;;;1.20;;
18693;SDS011;9477;51.414;10.362;2022-12-29T05:02:10;1.67;;;1.40;;
18693;SDS011;9477;51.414;10.362;2022-12-29T05:04:13;1.67;;;1.17;;
18693;SDS011;9477;51.414;10.362;2022-12-29T05:06:16;1.20;;;1.10;;
18693;SDS011;9477;51.414;10.362;2022-12-29T05:08:18;1.80;;;1.10;;
18693;SDS011;9477;51.414;10.362;2022-12-29T05:10:28;1.23;;;1.10;;
18693;SDS011;9477;51.414;10.362;2022-12-29T05:12:31;1.80;;;1.37;;
18693;SDS011;9477;51.414;10.362;2022-12-29T05:14:36;4.07;;;1.50;;
18693;SDS011;9477;51.414;10.362;2022-12-29T05:16:39;1.67;;;1.43;;
18693;SDS011;9477;51.414;10.362;2022-12-29T05:18:42;2.03;;;1.30;;
18693;SDS011;9477;51.414;10.362;2022-12-29T05:20:45;2.33;;;1.23;;
18693;SDS011;9477;51.414;10.362;2022-12-29T05:22:49;2.77;;;1.10;;
18693;SDS011;9477;51.414;10.362;2022-12-29T05:24:52;1.30;;;0.90;;
18693;SDS011;9477;51.414;10.362;2022-12-29T05:26:55;1.53;;;1.00;;
18693;SDS011;9477;51.414;10.362;2022-12-29T05:28:58;1.47;;;1.10;;
18693;SDS011;9477;51.414;10.362;2022-12-29T05:31:02;1.20;;;1.10;;
18693;SDS011;9477;51.414;10.362;2022-12-29T05:33:05;2.30;;;1.03;;
18693;SDS011;9477;51.414;10.362;2022-12-29T05:35:08;3.37;;;1.13;;
18693;SDS011;9477;51.414;10.362;2022-12-29T05:37:12;1.10;;;1.00;;
18693;SDS011;9477;51.414;10.362;2022-12-29T05:39:15;1.10;;;1.00;;
18693;SDS011;9477;51.414;10.362;2022-12-29T05:41:18;1.43;;;0.83;;
18693;SDS011;9477;51.414;10.362;2022-12-29T05:43:22;1.80;;;1.10;;
18693;SDS011;9477;51.414;10.362;2022-12-29T05:45:25;1.13;;;1.00;;
18693;SDS011;9477;51.414;10.362;2022-12-29T05:47:29;2.57;;;0.90;;
18693;SDS011;9477;51.414;10.362;2022-12-29T05:49:33;1.27;;;1.00;;
18693;SDS011;9477;51.414;10.362;2022-12-29T05:51:36;2.57;;;1.00;;
18693;SDS011;9477;51.414;10.362;2022-12-29T05:53:39;1.57;;;1.10;;
18693;SDS011;9477;51.414;10.362;2022-12-29T05:55:41;1.83;;;1.00;;
18693;SDS011;9477;51.414;10.362;2022-12-29T05:57:49;5.10;;;1.30;;
18693;SDS011;9477;51.414;10.362;2022-12-29T05:59:51;1.07;;;1.00;;
18693;SDS011;9477;51.414;10.362;2022-12-29T06:01:54;1.43;;;0.93;;
18693;SDS011;9477;51.414;10.362;2022-12-29T06:04:02;1.10;;;0.80;;
18693;SDS011;9477;51.414;10.362;2022-12-29T06:06:05;1.83;;;0.83;;
18693;SDS011;9477;51.414;10.362;2022-12-29T06:08:09;1.50;;;1.10;;
18693;SDS011;9477;51.414;10.362;2022-12-29T06:10:12;1.43;;;1.30;;
18693;SDS011;9477;51.414;10.362;2022-12-29T06:12:15;2.97;;;1.13;;
18693;SDS011;9477;51.414;10.362;2022-12-29T06:14:17;1.83;;;1.57;;
18693;SDS011;9477;51.414;10.362;2022-12-29T06:16:22;0.80;;;0.80;;
18693;SDS011;9477;51.414;10.362;2022-12-29T06:18:25;1.40;;;1.00;;
18693;SDS011;9477;51.414;10.362;2022-12-29T06:20:29;3.13;;;1.00;;
18693;SDS011;9477;51.414;10.362;2022-12-29T06:22:32;1.10;;;1.00;;
18693;SDS011;9477;51.414;10.362;2022-12-29T06:24:35;2.43;;;0.83;;
18693;SDS011;9477;51.414;10.362;2022-12-29T06:26:38;1.90;;;1.00;;
18693;SDS011;9477;51.414;10.362;2022-12-29T06:28:42;2.10;;;0.90;;
18693;SDS011;9477;51.414;10.362;2022-12-29T06:30:45;1.20;;;0.90;;
18693;SDS011;9477;51.414;10.362;2022-12-29T06:32:49;1.37;;;1.07;;
18693;SDS011;9477;51.414;10.362;2022-12-29T06:34:52;1.67;;;1.00;;
18693;SDS011;9477;51.414;10.362;2022-12-29T06:36:56;1.67;;;0.80;;
18693;SDS011;9477;51.414;10.362;2022-12-29T06:38:59;1.30;;;0.90;;
18693;SDS011;9477;51.414;10.362;2022-12-29T06:41:02;1.30;;;0.90;;
18693;SDS011;9477;51.414;10.362;2022-12-29T06:43:05;1.43;;;0.80;;
18693;SDS011;9477;51.414;10.362;2022-12-29T06:45:08;1.67;;;1.57;;
18693;SDS011;9477;51.414;10.362;2022-12-29T06:47:12;1.23;;;1.00;;
18693;SDS011;9477;51.414;10.362;2022-12-29T06:49:16;2.60;;;1.00;;
18693;SDS011;9477;51.414;10.362;2022-12-29T06:51:19;0.97;;;0.90;;
18693;SDS011;9477;51.414;10.362;2022-12-29T06:53:23;1.40;;;0.87;;
18693;SDS011;9477;51.414;10.362;2022-12-29T06:55:26;3.30;;;0.90;;
18693;SDS011;9477;51.414;10.362;2022-12-29T06:57:29;3.23;;;1.00;;
18693;SDS011;9477;51.414;10.362;2022-12-29T06:59:32;1.67;;;0.80;;
18693;SDS011;9477;51.414;10.362;2022-12-29T07:01:35;2.27;;;1.00;;
18693;SDS011;9477;51.414;10.362;2022-12-29T07:03:38;3.03;;;1.47;;
18693;SDS011;9477;51.414;10.362;2022-12-29T07:05:43;2.43;;;1.30;;
18693;SDS011;9477;51.414;10.362;2022-12-29T07:07:46;5.00;;;1.50;;
18693;SDS011;9477;51.414;10.362;2022-12-29T07:09:50;3.30;;;0.93;;
18693;SDS011;9477;51.414;10.362;2022-12-29T07:11:53;0.90;;;0.90;;
18693;SDS011;9477;51.414;10.362;2022-12-29T07:13:56;1.40;;;1.00;;
18693;SDS011;9477;51.414;10.362;2022-12-29T07:16:04;1.70;;;0.93;;
18693;SDS011;9477;51.414;10.362;2022-12-29T07:18:08;1.90;;;1.00;;
18693;SDS011;9477;51.414;10.362;2022-12-29T07:20:11;1.83;;;1.20;;
18693;SDS011;9477;51.414;10.362;2022-12-29T07:22:14;2.00;;;1.00;;
18693;SDS011;9477;51.414;10.362;2022-12-29T07:24:17;1.27;;;0.93;;
18693;SDS011;9477;51.414;10.362;2022-12-29T07:26:21;1.37;;;1.00;;
18693;SDS011;9477;51.414;10.362;2022-12-29T07:28:25;2.47;;;1.20;;
18693;SDS011;9477;51.414;10.362;2022-12-29T07:30:28;1.20;;;1.10;;
18693;SDS011;9477;51.414;10.362;2022-12-29T07:32:32;2.27;;;1.20;;
18693;SDS011;9477;51.414;10.362;2022-12-29T07:34:35;1.53;;;1.13;;
18693;SDS011;9477;51.414;10.362;2022-12-29T07:36:38;2.93;;;1.30;;
18693;SDS011;9477;51.414;10.362;2022-12-29T07:38:41;5.23;;;1.57;;
18693;SDS011;9477;51.414;10.362;2022-12-29T07:40:44;1.73;;;1.03;;
18693;SDS011;9477;51.414;10.362;2022-12-29T07:42:48;1.80;;;1.03;;
18693;SDS011;9477;51.414;10.362;2022-12-29T07:44:51;2.90;;;1.23;;
18693;SDS011;9477;51.414;10.362;2022-12-29T07:46:54;1.60;;;1.10;;
18693;SDS011;9477;51.414;10.362;2022-12-29T07:48:59;2.13;;;1.17;;
18693;SDS011;9477;51.414;10.362;2022-12-29T07:51:01;4.73;;;1.40;;
18693;SDS011;9477;51.414;10.362;2022-12-29T07:53:05;2.17;;;1.33;;
18693;SDS011;9477;51.414;10.362;2022-12-29T07:55:08;2.43;;;1.07;;
18693;SDS011;9477;51.414;10.362;2022-12-29T07:57:11;1.83;;;1.13;;
18693;SDS011;9477;51.414;10.362;2022-12-29T07:59:15;1.40;;;1.20;;
18693;SDS011;9477;51.414;10.362;2022-12-29T08:01:18;1.53;;;1.10;;
18693;SDS011;9477;51.414;10.362;2022-12-29T08:03:22;3.57;;;1.20;;
18693;SDS011;9477;51.414;10.362;2022-12-29T08:05:27;2.67;;;1.40;;
18693;SDS011;9477;51.414;10.362;2022-12-29T08:07:30;2.17;;;1.10;;
18693;SDS011;9477;51.414;10.362;2022-12-29T08:09:33;2.60;;;1.30;;
18693;SDS011;9477;51.414;10.362;2022-12-29T08:11:35;3.17;;;1.30;;
18693;SDS011;9477;51.414;10.362;2022-12-29T08:13:39;2.37;;;1.10;;
18693;SDS011;9477;51.414;10.362;2022-12-29T08:15:43;2.83;;;1.33;;
18693;SDS011;9477;51.414;10.362;2022-12-29T08:17:46;3.33;;;1.20;;
18693;SDS011;9477;51.414;10.362;2022-12-29T08:19:49;3.00;;;1.40;;
18693;SDS011;9477;51.414;10.362;2022-12-29T08:21:52;2.23;;;1.10;;
18693;SDS011;9477;51.414;10.362;2022-12-29T08:23:55;2.30;;;1.10;;
18693;SDS011;9477;51.414;10.362;2022-12-29T08:25:58;1.67;;;1.00;;
18693;SDS011;9477;51.414;10.362;2022-12-29T08:28:01;2.97;;;1.10;;
18693;SDS011;9477;51.414;10.362;2022-12-29T08:30:05;1.97;;;1.43;;
18693;SDS011;9477;51.414;10.362;2022-12-29T08:32:10;3.27;;;1.20;;
18693;SDS011;9477;51.414;10.362;2022-12-29T08:34:13;2.30;;;1.20;;
18693;SDS011;9477;51.414;10.362;2022-12-29T08:36:16;2.67;;;1.20;;
18693;SDS011;9477;51.414;10.362;2022-12-29T08:38:19;1.40;;;1.00;;
18693;SDS011;9477;51.414;10.362;2022-12-29T08:40:22;2.87;;;1.10;;
18693;SDS011;9477;51.414;10.362;2022-12-29T08:42:25;1.10;;;1.00;;
18693;SDS011;9477;51.414;10.362;2022-12-29T08:44:32;1.63;;;1.10;;
18693;SDS011;9477;51.414;10.362;2022-12-29T08:46:34;2.00;;;1.20;;
18693;SDS011;9477;51.414;10.362;2022-12-29T08:48:39;3.47;;;1.10;;
18693;SDS011;9477;51.414;10.362;2022-12-29T08:50:42;4.00;;;1.27;;
18693;SDS011;9477;51.414;10.362;2022-12-29T08:52:45;1.43;;;1.20;;
18693;SDS011;9477;51.414;10.362;2022-12-29T08:54:51;2.70;;;1.17;;
18693;SDS011;9477;51.414;10.362;2022-12-29T08:56:54;3.37;;;1.30;;
18693;SDS011;9477;51.414;10.362;2022-12-29T08:58:57;2.90;;;1.30;;
18693;SDS011;9477;51.414;10.362;2022-12-29T09:01:00;1.97;;;1.00;;
18693;SDS011;9477;51.414;10.362;2022-12-29T09:03:03;1.87;;;1.00;;
18693;SDS011;9477;51.414;10.362;2022-12-29T09:05:08;1.80;;;1.00;;
18693;SDS011;9477;51.414;10.362;2022-12-29T09:07:11;2.83;;;1.47;;
18693;SDS011;9477;51.414;10.362;2022-12-29T09:09:14;1.77;;;1.10;;
18693;SDS011;9477;51.414;10.362;2022-12-29T09:11:19;3.73;;;1.10;;
18693;SDS011;9477;51.414;10.362;2022-12-29T09:13:23;2.03;;;1.17;;
18693;SDS011;9477;51.414;10.362;2022-12-29T09:15:26;1.63;;;1.07;;
18693;SDS011;9477;51.414;10.362;2022-12-29T09:17:29;2.90;;;1.03;;
18693;SDS011;9477;51.414;10.362;2022-12-29T09:19:44;1.67;;;1.10;;
18693;SDS011;9477;51.414;10.362;2022-12-29T09:21:49;1.83;;;1.10;;
18693;SDS011;9477;51.414;10.362;2022-12-29T09:23:51;1.33;;;1.00;;
18693;SDS011;9477;51.414;10.362;2022-12-29T09:25:57;2.07;;;0.90;;
18693;SDS011;9477;51.414;10.362;2022-12-29T09:27:59;2.90;;;1.30;;
18693;SDS011;9477;51.414;10.362;2022-12-29T09:30:08;1.43;;;1.00;;
18693;SDS011;9477;51.414;10.362;2022-12-29T09:32:15;1.67;;;1.20;;
18693;SDS011;9477;51.414;10.362;2022-12-29T09:34:20;2.37;;;1.10;;
18693;SDS011;9477;51.414;10.362;2022-12-29T09:36:23;2.17;;;1.20;;
18693;SDS011;9477;51.414;10.362;2022-12-29T09:38:27;2.07;;;1.27;;
18693;SDS011;9477;51.414;10.362;2022-12-29T09:40:31;1.60;;;1.30;;
18693;SDS011;9477;51.414;10.362;2022-12-29T09:42:37;2.57;;;1.17;;
18693;SDS011;9477;51.414;10.362;2022-12-29T09:44:48;1.90;;;1.03;;
18693;SDS011;9477;51.414;10.362;2022-12-29T09:46:58;2.87;;;1.57;;
18693;SDS011;9477;51.414;10.362;2022-12-29T09:49:07;5.33;;;1.20;;
18693;SDS011;9477;51.414;10.362;2022-12-29T09:51:17;1.73;;;1.10;;
18693;SDS011;9477;51.414;10.362;2022-12-29T09:53:27;1.37;;;1.00;;
18693;SDS011;9477;51.414;10.362;2022-12-29T09:55:35;1.83;;;0.93;;
18693;SDS011;9477;51.414;10.362;2022-12-29T09:57:42;1.20;;;0.83;;
18693;SDS011;9477;51.414;10.362;2022-12-29T09:59:49;2.23;;;0.90;;
18693;SDS011;9477;51.414;10.362;2022-12-29T10:01:57;2.43;;;1.00;;
18693;SDS011;9477;51.414;10.362;2022-12-29T10:04:07;0.80;;;0.80;;
18693;SDS011;9477;51.414;10.362;2022-12-29T10:06:11;2.13;;;0.80;;
18693;SDS011;9477;51.414;10.362;2022-12-29T10:08:21;4.03;;;0.60;;
18693;SDS011;9477;51.414;10.362;2022-12-29T10:10:34;3.03;;;1.00;;
18693;SDS011;9477;51.414;10.362;2022-12-29T10:12:46;2.43;;;1.87;;
18693;SDS011;9477;51.414;10.362;2022-12-29T10:14:58;1.80;;;1.27;;
18693;SDS011;9477;51.414;10.362;2022-12-29T10:17:09;0.87;;;0.50;;
18693;SDS011;9477;51.414;10.362;2022-12-29T10:19:25;2.20;;;0.63;;
18693;SDS011;9477;51.414;10.362;2022-12-29T10:21:39;3.83;;;2.47;;
18693;SDS011;9477;51.414;10.362;2022-12-29T10:23:52;4.00;;;3.00;;
18693;SDS011;9477;51.414;10.362;2022-12-29T10:25:56;12.50;;;7.87;;
18693;SDS011;9477;51.414;10.362;2022-12-29T10:28:01;20.63;;;10.90;;
18693;SDS011;9477;51.414;10.362;2022-12-29T10:30:10;30.50;;;16.13;;
18693;SDS011;9477;51.414;10.362;2022-12-29T10:32:18;46.50;;;24.20;;
18693;SDS011;9477;51.414;10.362;2022-12-29T10:34:29;49.30;;;25.30;;
18693;SDS011;9477;51.414;10.362;2022-12-29T10:36:35;37.27;;;17.50;;
18693;SDS011;9477;51.414;10.362;2022-12-29T10:38:43;25.27;;;13.80;;
18693;SDS011;9477;51.414;10.362;2022-12-29T10:40:57;9.53;;;5.87;;
18693;SDS011;9477;51.414;10.362;2022-12-29T10:43:03;8.47;;;5.73;;
18693;SDS011;9477;51.414;10.362;2022-12-29T10:45:21;3.63;;;2.73;;
18693;SDS011;9477;51.414;10.362;2022-12-29T10:47:29;1.83;;;1.60;;
18693;SDS011;9477;51.414;10.362;2022-12-29T10:49:37;1.27;;;1.00;;
18693;SDS011;9477;51.414;10.362;2022-12-29T10:51:44;1.80;;;1.70;;
18693;SDS011;9477;51.414;10.362;2022-12-29T10:53:54;1.00;;;0.90;;
18693;SDS011;9477;51.414;10.362;2022-12-29T10:56:03;9.47;;;6.43;;
18693;SDS011;9477;51.414;10.362;2022-12-29T10:58:16;3.17;;;1.20;;
18693;SDS011;9477;51.414;10.362;2022-12-29T11:00:21;2.43;;;1.17;;
18693;SDS011;9477;51.414;10.362;2022-12-29T11:02:43;1.90;;;0.90;;
18693;SDS011;9477;51.414;10.362;2022-12-29T11:05:02;1.33;;;0.97;;
18693;SDS011;9477;51.414;10.362;2022-12-29T11:07:10;1.73;;;0.90;;
18693;SDS011;9477;51.414;10.362;2022-12-29T11:09:19;2.00;;;0.90;;
18693;SDS011;9477;51.414;10.362;2022-12-29T11:11:44;1.00;;;1.00;;
18693;SDS011;9477;51.414;10.362;2022-12-29T11:13:48;2.83;;;0.93;;
18693;SDS011;9477;51.414;10.362;2022-12-29T11:15:53;1.43;;;0.80;;
18693;SDS011;9477;51.414;10.362;2022-12-29T11:17:57;1.70;;;0.90;;
18693;SDS011;9477;51.414;10.362;2022-12-29T11:20:03;2.60;;;1.03;;
18693;SDS011;9477;51.414;10.362;2022-12-29T11:22:29;1.87;;;0.70;;
18693;SDS011;9477;51.414;10.362;2022-12-29T11:24:31;2.07;;;0.93;;
18693;SDS011;9477;51.414;10.362;2022-12-29T11:26:34;1.53;;;1.00;;
18693;SDS011;9477;51.414;10.362;2022-12-29T11:28:38;2.27;;;0.90;;
18693;SDS011;9477;51.414;10.362;2022-12-29T11:30:43;2.47;;;0.80;;
18693;SDS011;9477;51.414;10.362;2022-12-29T11:32:50;1.83;;;0.70;;
18693;SDS011;9477;51.414;10.362;2022-12-29T11:34:54;0.83;;;0.60;;
18693;SDS011;9477;51.414;10.362;2022-12-29T11:36:59;1.30;;;0.80;;
18693;SDS011;9477;51.414;10.362;2022-12-29T11:39:05;2.37;;;0.80;;
18693;SDS011;9477;51.414;10.362;2022-12-29T11:41:18;0.93;;;0.80;;
18693;SDS011;9477;51.414;10.362;2022-12-29T11:43:29;2.67;;;0.80;;
18693;SDS011;9477;51.414;10.362;2022-12-29T11:45:37;1.53;;;0.70;;
18693;SDS011;9477;51.414;10.362;2022-12-29T11:47:49;1.80;;;0.90;;
18693;SDS011;9477;51.414;10.362;2022-12-29T11:49:55;1.13;;;0.70;;
18693;SDS011;9477;51.414;10.362;2022-12-29T11:52:01;1.83;;;0.87;;
18693;SDS011;9477;51.414;10.362;2022-12-29T11:54:03;2.83;;;0.83;;
18693;SDS011;9477;51.414;10.362;2022-12-29T11:56:08;2.23;;;0.90;;
18693;SDS011;9477;51.414;10.362;2022-12-29T11:58:15;4.60;;;1.50;;
18693;SDS011;9477;51.414;10.362;2022-12-29T12:00:19;6.60;;;3.30;;
18693;SDS011;9477;51.414;10.362;2022-12-29T12:02:30;4.43;;;1.93;;
18693;SDS011;9477;51.414;10.362;2022-12-29T12:04:44;5.67;;;2.67;;
18693;SDS011;9477;51.414;10.362;2022-12-29T12:06:48;2.33;;;1.50;;
18693;SDS011;9477;51.414;10.362;2022-12-29T12:09:00;2.20;;;0.90;;
18693;SDS011;9477;51.414;10.362;2022-12-29T12:11:09;0.73;;;0.70;;
18693;SDS011;9477;51.414;10.362;2022-12-29T12:13:17;2.27;;;0.93;;
18693;SDS011;9477;51.414;10.362;2022-12-29T12:15:24;1.93;;;0.87;;
18693;SDS011;9477;51.414;10.362;2022-12-29T12:17:33;1.10;;;0.70;;
18693;SDS011;9477;51.414;10.362;2022-12-29T12:19:43;1.57;;;1.00;;
18693;SDS011;9477;51.414;10.362;2022-12-29T12:21:50;1.17;;;0.80;;
18693;SDS011;9477;51.414;10.362;2022-12-29T12:24:03;3.53;;;1.03;;
18693;SDS011;9477;51.414;10.362;2022-12-29T12:26:23;3.27;;;1.07;;
18693;SDS011;9477;51.414;10.362;2022-12-29T12:28:37;2.73;;;1.00;;
18693;SDS011;9477;51.414;10.362;2022-12-29T12:30:48;2.97;;;0.90;;
18693;SDS011;9477;51.414;10.362;2022-12-29T12:32:58;2.10;;;0.83;;
18693;SDS011;9477;51.414;10.362;2022-12-29T12:35:06;2.90;;;1.10;;
18693;SDS011;9477;51.414;10.362;2022-12-29T12:37:29;3.17;;;0.83;;
18693;SDS011;9477;51.414;10.362;2022-12-29T12:39:44;3.63;;;0.90;;
18693;SDS011;9477;51.414;10.362;2022-12-29T12:41:54;3.27;;;1.07;;
18693;SDS011;9477;51.414;10.362;2022-12-29T12:44:10;1.90;;;0.90;;
18693;SDS011;9477;51.414;10.362;2022-12-29T12:46:28;2.20;;;1.00;;
18693;SDS011;9477;51.414;10.362;2022-12-29T12:48:59;3.27;;;0.90;;
18693;SDS011;9477;51.414;10.362;2022-12-29T12:51:16;1.77;;;0.90;;